Time;durP1;ratioP1;P1;durP2;ratioP2;P2;SDS_P1;SDS_P2;PMS_P1;PMS_P2;Temp;Humidity;BMP_temperature;BMP_pressure;BME280_temperature;BME280_humidity;BME280_pressure;Samples;Min_cycle;Max_cycle;Signal;HPM_P1;HPM_P2
2022/09/27 15:36:47;;;;;;;10.00;9.10;;;;;;;14.75;68.94;98727.32;103154;1306;545359;-82
2022/09/27 15:39:36;;;;;;;12.20;9.30;;;;;;;14.74;69.18;98723.67;105519;1283;25368;-84
2022/09/27 15:42:06;;;;;;;9.80;8.60;;;;;;;14.79;69.37;98725.73;105387;1284;22554;-85
2022/09/27 15:44:37;;;;;;;9.60;8.80;;;;;;;14.83;68.99;98721.48;105935;1280;22736;-83
2022/09/27 15:47:04;;;;;;;12.20;11.10;;;;;;;14.87;69.00;98718.61;106187;1280;22525;-83
2022/09/27 15:49:34;;;;;;;10.50;9.50;;;;;;;14.90;68.97;98715.78;105895;1275;320909;-83
2022/09/27 15:52:04;;;;;;;10.10;9.20;;;;;;;14.92;68.80;98705.93;105440;1283;22692;-85
2022/09/27 15:54:34;;;;;;;10.00;9.20;;;;;;;14.92;68.95;98706.11;105447;1284;22570;-83
2022/09/27 15:57:04;;;;;;;10.90;9.40;;;;;;;14.90;68.77;98702.83;105242;1283;24232;-82
2022/09/27 15:59:34;;;;;;;10.30;9.40;;;;;;;14.83;68.86;98700.73;105521;1283;22624;-82
2022/09/27 16:02:21;;;;;;;9.30;8.50;;;;;;;14.81;69.10;98699.80;105170;1283;22752;-81
2022/09/27 16:04:48;;;;;;;9.30;8.60;;;;;;;14.78;69.05;98702.91;105715;1282;22553;-84
2022/09/27 16:07:15;;;;;;;11.00;9.80;;;;;;;14.80;69.32;98697.70;105341;1283;22646;-85
2022/09/27 16:09:43;;;;;;;10.60;9.70;;;;;;;14.82;69.29;98698.30;105536;1278;25200;-85
2022/09/27 16:12:12;;;;;;;12.80;11.50;;;;;;;14.79;69.36;98692.62;106330;1275;25588;-83
2022/09/27 16:14:39;;;;;;;11.00;10.10;;;;;;;14.73;69.45;98690.05;106239;1277;24235;-84
2022/09/27 16:17:06;;;;;;;10.40;9.60;;;;;;;14.72;69.42;98689.06;106248;1278;23962;-84
2022/09/27 16:19:33;;;;;;;10.10;9.20;;;;;;;14.71;69.63;98691.23;106158;1277;22536;-83
2022/09/27 16:22:02;;;;;;;10.10;9.20;;;;;;;14.70;69.59;98695.86;106075;1277;22622;-86
2022/09/27 16:24:30;;;;;;;10.70;9.70;;;;;;;14.69;69.51;98694.53;106272;1277;24760;-82
2022/09/27 16:26:57;;;;;;;10.30;9.40;;;;;;;14.67;69.32;98700.46;105961;1277;22869;-80
2022/09/27 16:29:25;;;;;;;11.60;10.40;;;;;;;14.65;69.40;98702.35;105739;1276;22733;-79
2022/09/27 16:31:52;;;;;;;9.50;8.70;;;;;;;14.63;69.43;98702.64;106056;1275;22522;-81
2022/09/27 16:34:20;;;;;;;10.20;9.30;;;;;;;14.60;69.48;98705.80;105903;1275;25241;-82
2022/09/27 16:36:49;;;;;;;11.20;10.20;;;;;;;14.60;69.68;98710.25;105924;1277;26509;-81
2022/09/27 16:39:16;;;;;;;10.80;9.90;;;;;;;14.57;69.68;98710.56;105769;1277;22620;-81
2022/09/27 16:41:43;;;;;;;8.80;8.00;;;;;;;14.54;69.56;98715.52;105890;1277;24269;-73
2022/09/27 16:44:12;;;;;;;10.50;8.70;;;;;;;14.53;69.59;98713.45;105936;1277;22538;-79
2022/09/27 16:46:46;;;;;;;9.90;8.40;;;;;;;14.54;69.68;98713.75;105339;1281;24281;-77
2022/09/27 16:51:59;;;;;;;9.00;8.20;;;;;;;14.46;69.45;98713.80;105289;1284;25313;-74
2022/09/27 16:54:29;;;;;;;10.40;9.40;;;;;;;14.42;69.82;98715.41;105341;1281;25242;-76
2022/09/27 16:56:57;;;;;;;9.50;8.70;;;;;;;14.40;69.69;98711.64;105439;1283;22542;-75
2022/09/27 16:59:25;;;;;;;9.10;8.20;;;;;;;14.40;69.80;98712.67;105554;1281;24221;-77
2022/09/27 17:01:56;;;;;;;9.90;8.90;;;;;;;14.40;69.74;98708.64;105314;1281;25405;-78
2022/09/27 17:04:26;;;;;;;10.00;9.20;;;;;;;14.35;69.68;98706.92;105522;1277;23217;-77
2022/09/27 17:06:54;;;;;;;10.40;9.50;;;;;;;14.30;69.73;98703.23;106153;1273;23950;-76
2022/09/27 17:09:21;;;;;;;11.40;10.40;;;;;;;14.27;69.72;98707.30;106279;1273;22691;-74
2022/09/27 17:11:48;;;;;;;11.10;10.00;;;;;;;14.22;69.83;98708.64;106238;1273;22545;-76
2022/09/27 17:14:16;;;;;;;11.10;10.10;;;;;;;14.18;69.88;98711.48;106034;1273;22558;-78
2022/09/27 17:16:45;;;;;;;10.60;9.80;;;;;;;14.14;69.89;98709.03;105742;1279;24240;-79
2022/09/27 17:19:13;;;;;;;9.40;8.60;;;;;;;14.11;70.18;98716.77;105729;1280;22693;-78
2022/09/27 17:21:42;;;;;;;10.80;9.70;;;;;;;14.08;70.02;98720.84;105649;1279;25469;-78
2022/09/27 17:24:10;;;;;;;10.80;9.80;;;;;;;14.05;70.23;98720.27;105806;1279;22574;-77
2022/09/27 17:26:37;;;;;;;10.90;10.00;;;;;;;14.06;70.18;98724.31;105780;1279;24261;-78
2022/09/27 17:29:04;;;;;;;12.50;11.40;;;;;;;14.04;70.23;98722.27;106077;1278;22564;-78
2022/09/27 17:31:33;;;;;;;12.30;11.30;;;;;;;14.00;70.12;98724.61;106075;1278;22841;-80
2022/09/27 17:34:02;;;;;;;11.00;9.60;;;;;;;13.97;70.37;98718.90;106394;1279;22562;-84
2022/09/27 17:36:36;;;;;;;11.20;10.20;;;;;;;13.95;70.64;98719.02;106440;1279;25361;-76
2022/09/27 17:39:04;;;;;;;11.30;10.30;;;;;;;13.91;70.41;98717.27;106163;1279;23242;-76
2022/09/27 17:41:33;;;;;;;11.80;10.70;;;;;;;13.93;70.72;98723.69;107551;1271;22564;-84
2022/09/27 17:44:06;;;;;;;12.30;11.10;;;;;;;13.95;70.88;98721.14;107485;1279;22544;-78
2022/09/27 17:46:35;;;;;;;11.40;10.50;;;;;;;13.95;70.77;98720.44;107128;1279;23066;-82
2022/09/27 17:51:50;;;;;;;;;;;;;;;13.91;70.87;98718.53;106630;1279;24278;-79
2022/09/27 17:54:19;;;;;;;12.80;11.70;;;;;;;13.89;70.89;98717.03;106191;1280;24250;-78
2022/09/27 17:56:46;;;;;;;12.60;11.50;;;;;;;13.83;70.90;98720.11;105647;1279;23965;-78
2022/09/27 17:59:14;;;;;;;12.20;11.10;;;;;;;13.82;71.17;98718.77;105424;1280;25235;-79
2022/09/27 18:01:44;;;;;;;11.50;10.40;;;;;;;13.82;71.23;98721.75;105059;1279;25259;-79
2022/09/27 18:04:13;;;;;;;12.10;11.10;;;;;;;13.83;71.24;98717.28;105832;1277;24322;-75
2022/09/27 18:06:43;;;;;;;12.40;11.20;;;;;;;13.83;71.42;98713.94;105867;1278;25235;-78
2022/09/27 18:09:12;;;;;;;13.00;11.70;;;;;;;13.83;71.22;98715.85;105119;1283;23943;-79
2022/09/27 18:11:40;;;;;;;13.20;12.10;;;;;;;13.82;71.55;98712.78;105359;1283;23949;-77
2022/09/27 18:14:09;;;;;;;14.40;13.00;;;;;;;13.79;71.30;98709.02;104973;1285;22566;-79
2022/09/27 18:16:41;;;;;;;12.10;11.00;;;;;;;13.73;71.53;98705.56;105969;1283;23015;-78
2022/09/27 18:19:12;;;;;;;14.40;11.50;;;;;;;13.69;71.74;98703.65;105630;1280;25364;-79
2022/09/27 18:21:40;;;;;;;14.50;13.30;;;;;;;13.66;71.66;98706.48;105940;1283;22761;-79
2022/09/27 18:24:08;;;;;;;15.50;14.10;;;;;;;13.64;71.96;98702.31;106105;1281;22775;-80
2022/09/27 18:26:38;;;;;;;15.90;14.20;;;;;;;13.64;71.86;98703.90;105388;1286;24296;-82
2022/09/27 18:29:09;;;;;;;16.40;14.90;;;;;;;13.64;72.05;98704.61;105435;1284;23926;-80
2022/09/27 18:31:38;;;;;;;15.40;14.00;;;;;;;13.61;72.00;98709.12;104868;1287;25248;-81
2022/09/27 18:34:08;;;;;;;13.00;11.70;;;;;;;13.59;72.01;98717.03;104953;1287;22639;-78
2022/09/27 18:36:39;;;;;;;13.60;12.30;;;;;;;13.56;72.02;98721.05;104885;1288;22714;-80
2022/09/27 18:39:11;;;;;;;14.20;12.20;;;;;;;13.56;72.30;98716.82;104912;1285;22665;-79
2022/09/27 18:41:38;;;;;;;14.50;13.10;;;;;;;13.58;72.28;98712.66;105013;1285;22568;-83
2022/09/27 18:44:06;;;;;;;13.50;12.10;;;;;;;13.59;72.27;98714.02;105091;1281;25324;-79
2022/09/27 18:46:35;;;;;;;13.10;11.90;;;;;;;13.54;72.19;98715.31;105932;1276;25374;-80
2022/09/27 18:49:05;;;;;;;14.40;12.90;;;;;;;13.52;72.16;98716.14;106342;1271;22757;-82
2022/09/27 18:51:36;;;;;;;12.30;10.90;;;;;;;13.50;72.34;98716.94;106610;1271;24197;-82
2022/09/27 18:54:06;;;;;;;12.70;11.20;;;;;;;13.48;72.38;98717.35;106430;1271;25364;-81
2022/09/27 18:56:37;;;;;;;12.30;11.10;;;;;;;13.50;72.29;98718.52;106584;1271;22543;-82
2022/09/27 18:59:07;;;;;;;12.30;11.20;;;;;;;13.51;72.27;98719.88;106917;1270;22482;-82
2022/09/27 19:01:43;;;;;;;13.60;12.30;;;;;;;13.51;72.37;98718.14;106950;1274;24345;-80
2022/09/27 19:04:15;;;;;;;16.10;11.10;;;;;;;13.50;72.43;98717.98;106431;1277;23954;-76
2022/09/27 19:06:50;;;;;;;11.90;10.80;;;;;;;13.49;72.22;98714.66;106116;1274;24825;-81
2022/09/27 19:09:18;;;;;;;10.20;9.20;;;;;;;13.49;72.32;98714.84;106079;1274;25383;-78
2022/09/27 19:11:45;;;;;;;11.20;10.00;;;;;;;13.49;72.21;98714.83;105321;1282;22530;-77
2022/09/27 19:14:18;;;;;;;12.30;11.00;;;;;;;13.47;72.22;98714.72;106614;1281;22536;-77
2022/09/27 19:16:46;;;;;;;11.40;10.20;;;;;;;13.45;72.11;98720.15;106851;1281;22814;-78
2022/09/27 19:19:15;;;;;;;10.90;9.90;;;;;;;13.46;72.09;98719.20;106767;1276;25235;-78
2022/09/27 19:21:43;;;;;;;11.70;10.50;;;;;;;13.46;71.97;98713.74;106743;1276;24236;-79
2022/09/27 19:24:12;;;;;;;10.60;9.60;;;;;;;13.39;71.77;98716.55;106389;1276;22691;-76
2022/09/27 19:26:40;;;;;;;11.50;9.30;;;;;;;13.35;72.07;98713.54;106395;1276;22667;-79
2022/09/27 19:29:06;;;;;;;9.40;8.50;;;;;;;13.37;72.17;98706.52;105999;1274;25664;-75
2022/09/27 19:31:34;;;;;;;9.70;8.80;;;;;;;13.41;72.12;98700.71;106303;1270;25246;-76
2022/09/27 19:34:02;;;;;;;9.60;8.70;;;;;;;13.43;72.00;98697.08;106193;1271;22623;-78
2022/09/27 19:36:30;;;;;;;10.00;9.00;;;;;;;13.45;71.99;98697.86;106426;1270;25445;-80
2022/09/27 19:38:57;;;;;;;13.20;10.30;;;;;;;13.41;71.73;98694.16;106386;1270;24332;-80
2022/09/27 19:41:25;;;;;;;9.60;8.70;;;;;;;13.32;71.96;98692.96;106124;1270;22553;-81
2022/09/27 19:43:53;;;;;;;10.40;8.60;;;;;;;13.34;72.07;98690.10;106338;1270;25332;-78
2022/09/27 19:46:22;;;;;;;11.80;9.40;;;;;;;13.35;72.11;98688.95;106136;1271;22543;-78
2022/09/27 19:48:50;;;;;;;11.10;8.90;;;;;;;13.32;72.01;98683.08;106426;1270;24422;-77
2022/09/27 19:51:20;;;;;;;10.40;9.40;;;;;;;13.36;71.97;98684.14;106174;1271;22534;-79
2022/09/27 19:53:48;;;;;;;10.10;9.00;;;;;;;13.37;71.97;98681.59;106288;1273;23125;-79
2022/09/27 19:56:15;;;;;;;10.30;9.30;;;;;;;13.35;72.00;98676.77;106432;1268;25348;-79
2022/09/27 19:58:42;;;;;;;9.50;8.70;;;;;;;13.31;71.97;98675.35;106265;1273;24432;-80
2022/09/27 20:01:11;;;;;;;9.60;8.70;;;;;;;13.30;72.14;98675.40;106354;1270;22535;-77
2022/09/27 20:03:40;;;;;;;10.30;8.90;;;;;;;13.32;72.14;98671.60;106275;1270;23958;-78
2022/09/27 20:06:10;;;;;;;9.90;8.90;;;;;;;13.34;72.20;98668.88;106359;1270;22594;-79
2022/09/27 20:08:37;;;;;;;9.50;8.50;;;;;;;13.33;72.11;98669.42;106280;1270;22546;-77
2022/09/27 20:11:13;;;;;;;9.90;8.70;;;;;;;13.31;72.11;98663.36;106216;1270;22528;-78
2022/09/27 20:13:42;;;;;;;9.30;8.40;;;;;;;13.32;72.31;98664.90;106312;1270;25444;-76
2022/09/27 20:16:22;;;;;;;9.60;8.60;;;;;;;13.32;72.39;98663.12;105783;1277;24347;-78
2022/09/27 20:18:52;;;;;;;9.70;8.70;;;;;;;13.29;72.09;98656.93;106045;1275;23928;-78
2022/09/27 20:21:21;;;;;;;9.70;8.60;;;;;;;13.28;72.34;98655.20;105826;1274;24342;-74
2022/09/27 20:23:55;;;;;;;10.10;8.70;;;;;;;13.29;72.36;98651.09;105931;1274;22656;-78
2022/09/27 20:26:24;;;;;;;10.60;9.60;;;;;;;13.27;72.29;98649.75;105189;1283;22568;-77
2022/09/27 20:28:55;;;;;;;9.90;8.90;;;;;;;13.30;72.53;98650.16;105420;1281;24233;-80
2022/09/27 20:31:25;;;;;;;11.00;9.80;;;;;;;13.31;72.62;98650.27;105500;1282;24171;-80
2022/09/27 20:33:52;;;;;;;10.10;9.10;;;;;;;13.32;72.52;98653.77;105494;1276;22703;-79
2022/09/27 20:36:27;;;;;;;10.60;9.10;;;;;;;13.30;72.59;98651.21;105761;1278;25530;-79
2022/09/27 20:39:03;;;;;;;10.80;9.80;;;;;;;13.27;72.63;98650.29;105747;1276;23095;-81
2022/09/27 20:41:35;;;;;;;10.70;9.60;;;;;;;13.29;72.83;98651.79;105729;1276;25405;-81
2022/09/27 20:44:08;;;;;;;15.20;10.70;;;;;;;13.30;72.71;98649.77;106005;1272;22870;-80
2022/09/27 20:46:37;;;;;;;10.90;9.80;;;;;;;13.26;72.84;98650.32;106291;1270;22553;-79
2022/09/27 20:49:07;;;;;;;11.10;9.20;;;;;;;13.23;72.91;98651.69;106366;1271;22548;-80
2022/09/27 20:51:38;;;;;;;10.60;9.50;;;;;;;13.22;72.98;98649.42;106407;1270;22538;-83
2022/09/27 20:54:07;;;;;;;10.70;9.60;;;;;;;13.22;72.96;98652.65;106365;1270;26541;-78
2022/09/27 20:56:40;;;;;;;12.10;10.90;;;;;;;13.19;73.16;98654.91;106287;1271;22685;-77
2022/09/27 20:59:14;;;;;;;11.40;10.30;;;;;;;13.16;73.28;98654.73;106031;1276;24343;-80
2022/09/27 21:01:43;;;;;;;11.30;10.20;;;;;;;13.13;73.64;98656.77;105900;1276;22600;-81
2022/09/27 21:04:16;;;;;;;21.10;16.20;;;;;;;13.15;73.94;98655.46;106063;1276;23694;-80
2022/09/27 21:06:43;;;;;;;27.90;22.00;;;;;;;13.15;74.19;98653.89;105820;1276;22686;-80
2022/09/27 21:09:17;;;;;;;14.70;11.50;;;;;;;13.12;74.42;98654.15;106047;1275;25254;-79
2022/09/27 21:11:47;;;;;;;12.30;10.40;;;;;;;13.10;74.73;98662.02;106049;1276;22659;-76
2022/09/27 21:14:15;;;;;;;11.50;10.10;;;;;;;13.08;74.92;98661.92;105963;1277;22573;-79
2022/09/27 21:16:42;;;;;;;10.70;9.70;;;;;;;13.03;75.04;98656.02;105998;1271;25235;-81
2022/09/27 21:19:12;;;;;;;12.50;11.20;;;;;;;12.93;75.51;98658.24;106317;1270;24292;-81
2022/09/27 21:21:39;;;;;;;10.90;9.80;;;;;;;12.97;75.97;98657.15;106560;1270;22652;-77
2022/09/27 21:24:06;;;;;;;11.30;10.20;;;;;;;12.98;76.00;98655.89;106023;1278;24261;-78
2022/09/27 21:26:33;;;;;;;11.20;10.10;;;;;;;12.99;76.16;98655.31;106109;1276;22623;-81
2022/09/27 21:29:05;;;;;;;11.40;10.20;;;;;;;12.94;76.18;98656.76;106196;1276;25379;-77
2022/09/27 21:31:33;;;;;;;13.40;11.00;;;;;;;12.86;76.33;98658.87;106364;1276;22466;-79
2022/09/27 21:34:02;;;;;;;10.30;9.30;;;;;;;12.85;76.66;98656.85;106784;1276;22655;-78
2022/09/27 21:36:34;;;;;;;11.40;9.40;;;;;;;12.79;76.84;98662.03;106429;1276;22737;-78
2022/09/27 21:39:04;;;;;;;12.40;9.40;;;;;;;12.81;77.24;98653.48;106356;1276;22592;-76
2022/09/27 21:41:31;;;;;;;10.80;9.80;;;;;;;12.79;77.45;98651.29;107746;1271;22571;-79
2022/09/27 21:44:02;;;;;;;11.50;10.20;;;;;;;12.72;77.38;98655.45;107788;1270;22596;-79
2022/09/27 21:46:29;;;;;;;11.40;10.00;;;;;;;12.67;77.74;98654.48;107670;1271;22589;-79
2022/09/27 21:48:58;;;;;;;11.60;10.40;;;;;;;12.68;78.10;98646.84;107651;1271;22534;-79
2022/09/27 21:51:30;;;;;;;12.20;10.80;;;;;;;12.62;78.09;98643.39;107277;1271;23951;-79
2022/09/27 21:54:00;;;;;;;12.20;10.00;;;;;;;12.64;78.65;98637.49;106696;1270;22564;-79
2022/09/27 21:56:29;;;;;;;11.20;10.00;;;;;;;12.68;78.75;98633.40;106737;1271;22538;-79
2022/09/27 21:58:57;;;;;;;10.50;9.40;;;;;;;12.72;78.83;98626.52;106637;1270;23052;-78
2022/09/27 22:01:27;;;;;;;10.60;9.50;;;;;;;12.76;78.83;98627.58;106929;1271;24055;-78
2022/09/27 22:03:55;;;;;;;10.60;9.50;;;;;;;12.81;78.80;98623.11;106611;1271;22563;-83
2022/09/27 22:06:25;;;;;;;10.70;9.60;;;;;;;12.85;79.04;98621.52;106779;1270;22483;-78
2022/09/27 22:08:53;;;;;;;12.40;10.40;;;;;;;12.94;79.12;98617.05;107283;1271;24154;-78
2022/09/27 22:11:26;;;;;;;11.60;10.10;;;;;;;13.02;78.93;98613.11;107168;1271;22547;-78
2022/09/27 22:13:53;;;;;;;11.40;10.10;;;;;;;13.03;78.69;98607.26;106985;1270;22538;-77
2022/09/27 22:16:22;;;;;;;10.70;9.60;;;;;;;13.04;78.65;98608.41;106972;1271;22621;-79
2022/09/27 22:18:52;;;;;;;9.90;9.00;;;;;;;13.08;78.67;98606.30;108125;1268;24118;-78
2022/09/27 22:21:27;;;;;;;10.20;9.10;;;;;;;13.11;78.54;98605.59;108295;1270;22619;-77
2022/09/27 22:24:05;;;;;;;10.90;9.80;;;;;;;13.12;78.21;98604.30;107487;1271;24243;-80
2022/09/27 22:26:37;;;;;;;11.10;9.90;;;;;;;13.15;78.36;98598.02;107720;1271;26622;-79
2022/09/27 22:29:05;;;;;;;11.90;10.00;;;;;;;13.17;78.17;98596.34;107664;1271;24290;-78
2022/09/27 22:31:33;;;;;;;11.00;10.00;;;;;;;13.16;78.14;98594.80;107034;1271;22823;-80
2022/09/27 22:34:03;;;;;;;10.70;9.60;;;;;;;13.13;77.90;98590.30;107193;1270;23925;-79
2022/09/27 22:36:32;;;;;;;10.60;9.60;;;;;;;13.13;78.09;98586.05;106616;1271;25242;-78
2022/09/27 22:38:59;;;;;;;10.50;9.50;;;;;;;13.13;77.90;98581.66;106524;1271;23041;-82
2022/09/27 22:41:28;;;;;;;10.90;9.80;;;;;;;13.08;78.21;98577.64;106487;1272;22545;-79
2022/09/27 22:43:55;;;;;;;11.50;10.40;;;;;;;13.11;78.69;98572.19;106016;1276;26002;-80
2022/09/27 22:46:22;;;;;;;12.70;11.30;;;;;;;13.14;78.32;98572.23;105970;1276;25325;-79
2022/09/27 22:48:49;;;;;;;11.80;10.50;;;;;;;13.13;78.41;98570.86;105998;1276;24131;-80
2022/09/27 22:51:17;;;;;;;11.70;10.60;;;;;;;13.15;78.52;98561.98;106096;1276;22521;-77
2022/09/27 22:53:43;;;;;;;10.40;9.40;;;;;;;13.15;78.30;98556.66;106116;1277;25356;-79
2022/09/27 22:56:16;;;;;;;10.10;9.10;;;;;;;13.15;78.28;98558.96;105966;1276;22556;-77
2022/09/27 22:58:44;;;;;;;14.40;10.70;;;;;;;13.17;78.23;98558.67;106060;1276;22540;-80
2022/09/27 23:01:20;;;;;;;10.90;9.80;;;;;;;13.20;78.45;98559.96;105899;1276;23003;-79
2022/09/27 23:03:49;;;;;;;11.70;10.60;;;;;;;13.24;78.50;98559.95;106617;1271;22546;-79
2022/09/27 23:06:18;;;;;;;11.80;10.50;;;;;;;13.27;78.49;98562.06;106989;1269;25318;-78
2022/09/27 23:08:46;;;;;;;10.70;9.70;;;;;;;13.27;78.18;98563.87;106710;1271;22575;-78
2022/09/27 23:11:18;;;;;;;11.90;10.70;;;;;;;13.17;78.05;98562.40;106662;1270;24380;-77
2022/09/27 23:13:47;;;;;;;11.20;10.10;;;;;;;13.01;78.07;98563.69;106628;1268;22674;-75
2022/09/27 23:16:19;;;;;;;12.40;11.20;;;;;;;12.93;78.66;98558.21;106600;1271;24371;-79
2022/09/27 23:18:46;;;;;;;11.50;10.40;;;;;;;12.92;78.75;98555.28;106015;1277;24225;-79
2022/09/27 23:21:15;;;;;;;11.90;10.70;;;;;;;12.95;78.93;98556.58;106223;1274;22537;-81
2022/09/27 23:23:44;;;;;;;13.20;11.80;;;;;;;12.99;78.90;98559.90;106176;1274;22561;-75
2022/09/27 23:26:13;;;;;;;11.40;10.20;;;;;;;13.00;79.02;98553.64;106071;1274;24321;-74
2022/09/27 23:28:40;;;;;;;11.30;10.30;;;;;;;13.04;78.82;98551.19;106098;1274;24323;-75
2022/09/27 23:31:10;;;;;;;17.00;15.30;;;;;;;13.02;78.71;98551.27;105824;1275;24241;-75
2022/09/27 23:33:39;;;;;;;13.80;11.60;;;;;;;13.01;78.68;98553.61;106165;1274;23027;-78
2022/09/27 23:36:08;;;;;;;12.50;11.20;;;;;;;13.01;78.98;98550.77;106183;1271;24281;-77
2022/09/27 23:38:36;;;;;;;12.30;11.10;;;;;;;13.05;79.00;98551.15;106402;1270;22827;-78
2022/09/27 23:41:03;;;;;;;12.90;11.70;;;;;;;13.04;78.90;98553.65;106519;1271;22717;-84
2022/09/27 23:43:30;;;;;;;13.10;11.50;;;;;;;13.05;78.98;98547.23;106554;1268;22566;-78
2022/09/27 23:45:57;;;;;;;15.00;12.10;;;;;;;13.04;78.74;98544.83;106525;1269;24253;-77
2022/09/27 23:48:25;;;;;;;13.70;12.40;;;;;;;12.94;78.83;98544.94;106331;1274;22557;-78
2022/09/27 23:50:51;;;;;;;13.70;12.50;;;;;;;12.88;78.88;98544.86;105953;1274;25277;-77
2022/09/27 23:53:20;;;;;;;14.30;12.90;;;;;;;12.83;79.20;98544.77;106043;1277;26503;-80
2022/09/27 23:55:48;;;;;;;13.30;12.00;;;;;;;12.78;79.38;98546.39;105957;1274;24255;-77
2022/09/27 23:58:16;;;;;;;13.20;12.00;;;;;;;12.81;79.75;98541.30;106203;1275;24262;-75
